createdAt,value
2019-03-05T00:01:33.588Z,19.47
2019-03-05T00:03:59.987Z,19.43
2019-03-05T00:06:26.324Z,19.42
2019-03-05T00:08:52.701Z,19.43
2019-03-05T00:11:19.020Z,19.43
2019-03-05T00:13:45.353Z,19.44
2019-03-05T00:16:11.726Z,19.42
2019-03-05T00:18:38.132Z,19.41
2019-03-05T00:21:04.550Z,19.41
2019-03-05T00:23:33.701Z,19.39
2019-03-05T00:26:00.087Z,19.38
2019-03-05T00:28:26.420Z,19.41
2019-03-05T00:30:52.787Z,19.39
2019-03-05T00:33:19.181Z,19.42
2019-03-05T00:35:45.568Z,19.39
2019-03-05T00:38:11.910Z,19.39
2019-03-05T00:40:38.250Z,19.37
2019-03-05T00:43:04.589Z,19.37
2019-03-05T00:45:30.945Z,19.35
2019-03-05T00:47:57.334Z,19.39
2019-03-05T00:50:23.731Z,19.37
2019-03-05T00:52:50.060Z,19.35
2019-03-05T00:55:16.405Z,19.36
2019-03-05T00:57:42.746Z,19.37
2019-03-05T01:00:09.239Z,19.35
2019-03-05T01:02:35.566Z,19.38
2019-03-05T01:05:01.908Z,19.37
2019-03-05T01:07:28.261Z,19.32
2019-03-05T01:09:54.668Z,19.37
2019-03-05T01:12:21.003Z,19.39
2019-03-05T01:14:47.357Z,19.43
2019-03-05T01:17:13.687Z,19.44
2019-03-05T01:19:40.205Z,19.57
2019-03-05T01:22:06.552Z,19.53
2019-03-05T01:24:32.936Z,19.57
2019-03-05T01:26:59.278Z,19.59
2019-03-05T01:29:25.721Z,19.60
2019-03-05T01:31:52.013Z,19.61
2019-03-05T01:34:18.390Z,19.65
2019-03-05T01:36:44.805Z,19.68
2019-03-05T01:39:11.149Z,19.71
2019-03-05T01:41:37.498Z,19.66
2019-03-05T01:44:03.880Z,19.70
2019-03-05T01:46:30.222Z,19.75
2019-03-05T01:48:56.564Z,19.72
2019-03-05T01:51:22.908Z,19.74
2019-03-05T01:53:49.250Z,19.79
2019-03-05T01:56:15.659Z,19.76
2019-03-05T01:58:42.033Z,19.80
2019-03-05T02:01:08.397Z,19.81
2019-03-05T02:03:34.714Z,19.82
2019-03-05T02:06:01.106Z,19.80
2019-03-05T02:08:27.574Z,19.86
2019-03-05T02:10:53.978Z,19.86
2019-03-05T02:13:20.329Z,20.00
2019-03-05T02:15:46.667Z,20.03
2019-03-05T02:18:13.070Z,20.06
2019-03-05T02:20:39.483Z,20.11
2019-03-05T02:23:05.953Z,20.13
2019-03-05T02:25:32.235Z,20.16
2019-03-05T02:27:58.582Z,20.19
2019-03-05T02:30:24.968Z,20.24
2019-03-05T02:32:51.418Z,20.25
2019-03-05T02:35:17.756Z,20.27
2019-03-05T02:37:44.124Z,20.29
2019-03-05T02:40:10.612Z,20.31
2019-03-05T02:42:36.954Z,20.34
2019-03-05T02:45:03.296Z,20.35
2019-03-05T02:47:29.767Z,20.36
2019-03-05T02:49:56.016Z,20.41
2019-03-05T02:52:22.389Z,20.39
2019-03-05T02:54:48.772Z,20.41
2019-03-05T02:57:15.162Z,20.44
2019-03-05T02:59:41.512Z,20.46
2019-03-05T03:02:07.867Z,20.47
2019-03-05T03:04:34.204Z,20.51
2019-03-05T03:07:00.557Z,20.50
2019-03-05T03:09:26.905Z,20.50
2019-03-05T03:11:53.296Z,20.53
2019-03-05T03:14:19.572Z,20.54
2019-03-05T03:16:45.950Z,20.56
2019-03-05T03:19:12.305Z,20.58
2019-03-05T03:21:38.746Z,20.60
2019-03-05T03:24:05.101Z,20.61
2019-03-05T03:26:31.429Z,20.62
2019-03-05T03:28:59.036Z,20.62
2019-03-05T03:31:24.133Z,20.64
2019-03-05T03:33:50.471Z,20.64
2019-03-05T03:36:16.860Z,20.66
2019-03-05T03:38:43.293Z,20.65
2019-03-05T03:41:09.623Z,20.69
2019-03-05T03:43:35.952Z,20.73
2019-03-05T03:46:02.294Z,20.74
2019-03-05T03:48:28.645Z,20.76
2019-03-05T03:50:54.989Z,20.79
2019-03-05T03:53:21.344Z,20.80
2019-03-05T03:55:47.703Z,20.85
2019-03-05T03:58:14.215Z,20.86
2019-03-05T04:00:40.552Z,20.91
2019-03-05T04:03:06.900Z,20.92
2019-03-05T04:05:33.253Z,20.95
2019-03-05T04:07:59.602Z,21.00
2019-03-05T04:10:25.983Z,20.99
2019-03-05T04:12:52.323Z,20.89
2019-03-05T04:15:18.703Z,21.06
2019-03-05T04:17:45.041Z,20.88
2019-03-05T04:20:11.502Z,21.05
2019-03-05T04:22:37.859Z,21.09
2019-03-05T04:25:04.202Z,21.03
2019-03-05T04:27:30.542Z,21.11
2019-03-05T04:29:56.910Z,21.15
2019-03-05T04:32:23.942Z,21.18
2019-03-05T04:34:49.787Z,21.20
2019-03-05T04:37:16.226Z,21.23
2019-03-05T04:39:42.570Z,21.23
2019-03-05T04:42:08.917Z,21.25
2019-03-05T04:44:35.263Z,21.28
2019-03-05T04:47:01.608Z,21.28
2019-03-05T04:49:28.017Z,21.29
2019-03-05T04:51:54.360Z,21.32
2019-03-05T04:54:20.704Z,21.35
2019-03-05T04:56:47.042Z,21.36
2019-03-05T04:59:13.395Z,21.42
2019-03-05T05:01:39.714Z,21.42
2019-03-05T05:04:06.025Z,21.42
2019-03-05T05:06:32.391Z,21.47
2019-03-05T05:08:58.767Z,21.47
2019-03-05T05:11:25.115Z,21.53
2019-03-05T05:13:51.447Z,21.55
2019-03-05T05:16:17.778Z,21.58
2019-03-05T05:18:44.159Z,21.60
2019-03-05T05:21:10.490Z,21.62
2019-03-05T05:23:36.810Z,21.65
2019-03-05T05:26:03.143Z,21.69
2019-03-05T05:28:29.462Z,21.70
2019-03-05T05:30:55.851Z,21.74
2019-03-05T05:33:22.179Z,21.78
2019-03-05T05:35:48.567Z,21.84
2019-03-05T05:38:14.982Z,21.87
2019-03-05T05:40:41.367Z,21.90
2019-03-05T05:43:07.801Z,21.98
2019-03-05T05:45:34.150Z,21.99
2019-03-05T05:48:00.526Z,22.02
2019-03-05T05:50:26.845Z,22.10
2019-03-05T05:52:53.217Z,22.06
2019-03-05T05:55:19.548Z,22.10
2019-03-05T05:57:45.868Z,22.12
2019-03-05T06:00:12.236Z,22.19
2019-03-05T06:02:38.586Z,22.21
2019-03-05T06:05:05.000Z,22.25
2019-03-05T06:07:31.457Z,22.25
2019-03-05T06:09:57.860Z,22.27
2019-03-05T06:12:24.217Z,22.38
2019-03-05T06:14:50.547Z,22.48
2019-03-05T06:17:16.935Z,22.52
2019-03-05T06:19:43.306Z,22.56
2019-03-05T06:22:09.751Z,22.54
2019-03-05T06:24:36.197Z,22.66
2019-03-05T06:27:02.726Z,22.67
2019-03-05T06:29:29.136Z,22.70
2019-03-05T06:31:55.518Z,22.69
2019-03-05T06:34:21.896Z,22.83
2019-03-05T06:36:48.234Z,22.90
2019-03-05T06:39:14.673Z,22.93
2019-03-05T06:41:41.005Z,22.98
2019-03-05T06:44:09.384Z,23.01
2019-03-05T06:46:33.775Z,23.00
2019-03-05T06:49:02.605Z,23.07
2019-03-05T06:51:29.090Z,23.16
2019-03-05T06:53:55.454Z,23.28
2019-03-05T06:56:21.831Z,23.31
2019-03-05T06:58:48.183Z,23.37
2019-03-05T07:01:14.546Z,23.46
2019-03-05T07:03:41.057Z,23.44
2019-03-05T07:06:07.410Z,23.38
2019-03-05T07:08:36.199Z,23.62
2019-03-05T07:11:02.599Z,23.51
2019-03-05T07:13:28.930Z,23.52
2019-03-05T07:15:55.288Z,23.69
2019-03-05T07:18:23.785Z,23.80
2019-03-05T07:20:50.199Z,23.70
2019-03-05T07:23:16.484Z,23.83
2019-03-05T07:25:42.835Z,23.83
2019-03-05T07:28:09.226Z,23.92
2019-03-05T07:30:36.936Z,23.88
2019-03-05T07:33:01.996Z,23.96
2019-03-05T07:35:28.340Z,23.77
2019-03-05T07:37:54.670Z,23.86
2019-03-05T07:40:21.061Z,24.00
2019-03-05T07:42:47.569Z,24.14
2019-03-05T07:45:13.919Z,24.19
2019-03-05T07:47:40.322Z,24.18
2019-03-05T07:50:08.901Z,24.21
2019-03-05T07:52:35.231Z,24.19
2019-03-05T07:55:12.981Z,24.11
2019-03-05T07:57:27.951Z,24.19
2019-03-05T07:59:54.300Z,24.24
2019-03-05T08:02:20.623Z,24.28
2019-03-05T08:04:46.961Z,24.41
2019-03-05T08:07:13.285Z,24.43
2019-03-05T08:09:39.641Z,24.38
2019-03-05T08:12:05.987Z,24.49
2019-03-05T08:14:34.583Z,24.48
2019-03-05T08:17:01.003Z,24.50
2019-03-05T08:19:27.313Z,24.69
2019-03-05T08:21:53.675Z,24.50
2019-03-05T08:24:20.067Z,24.44
2019-03-05T08:26:46.832Z,24.54
2019-03-05T08:29:13.555Z,24.49
2019-03-05T08:31:39.904Z,24.63
2019-03-05T08:34:06.334Z,24.54
2019-03-05T08:36:32.675Z,24.47
2019-03-05T08:38:59.107Z,24.60
2019-03-05T08:41:25.462Z,24.69
2019-03-05T08:43:54.229Z,24.64
2019-03-05T08:46:18.166Z,24.79
2019-03-05T08:48:44.552Z,24.56
2019-03-05T08:51:10.890Z,24.66
2019-03-05T08:53:37.231Z,24.50
2019-03-05T08:56:03.621Z,24.75
2019-03-05T08:58:29.957Z,24.55
2019-03-05T09:00:56.403Z,24.68
2019-03-05T09:03:22.801Z,24.76
2019-03-05T09:05:49.149Z,24.53
2019-03-05T09:08:15.501Z,24.58
2019-03-05T09:10:42.007Z,24.55
2019-03-05T09:13:08.413Z,24.54
2019-03-05T09:15:34.724Z,24.50
2019-03-05T09:18:01.133Z,24.55
2019-03-05T09:20:27.541Z,24.53
2019-03-05T09:22:53.913Z,24.48
2019-03-05T09:25:20.306Z,24.60
2019-03-05T09:27:46.710Z,24.56
2019-03-05T09:30:12.996Z,24.49
2019-03-05T09:32:39.501Z,24.36
2019-03-05T09:35:05.845Z,24.26
2019-03-05T09:37:32.176Z,24.21
2019-03-05T09:39:58.514Z,24.14
2019-03-05T09:42:25.053Z,24.13
2019-03-05T09:44:51.432Z,23.99
2019-03-05T09:47:17.812Z,23.96
2019-03-05T09:49:44.162Z,23.89
2019-03-05T09:52:10.535Z,23.92
2019-03-05T09:54:36.946Z,23.90
2019-03-05T09:57:03.301Z,23.83
2019-03-05T09:59:29.690Z,23.75
2019-03-05T10:01:56.028Z,23.88
2019-03-05T10:04:22.636Z,23.75
2019-03-05T10:06:48.958Z,23.74
2019-03-05T10:09:15.327Z,23.70
2019-03-05T10:11:41.704Z,23.81
2019-03-05T10:14:08.059Z,23.77
2019-03-05T10:16:34.407Z,23.75
2019-03-05T10:19:00.906Z,23.82
2019-03-05T10:21:27.247Z,23.72
2019-03-05T10:23:53.577Z,23.75
2019-03-05T10:26:19.982Z,23.75
2019-03-05T10:28:46.342Z,23.68
2019-03-05T10:31:12.719Z,23.69
2019-03-05T10:33:39.079Z,23.72
2019-03-05T10:36:05.411Z,23.72
2019-03-05T10:38:31.757Z,23.69
2019-03-05T10:40:58.122Z,23.79
2019-03-05T10:43:24.471Z,23.76
2019-03-05T10:45:50.789Z,23.76
2019-03-05T10:48:17.223Z,23.71
2019-03-05T10:50:43.452Z,23.75
2019-03-05T10:53:09.817Z,23.75
2019-03-05T10:55:36.178Z,23.75
2019-03-05T10:58:02.512Z,23.87
2019-03-05T11:00:28.847Z,23.80
2019-03-05T11:02:55.200Z,23.69
2019-03-05T11:05:21.549Z,23.65
2019-03-05T11:07:47.891Z,23.57
2019-03-05T11:10:14.348Z,23.82
2019-03-05T11:12:40.714Z,23.70
2019-03-05T11:15:07.044Z,23.67
2019-03-05T11:17:33.463Z,23.76
2019-03-05T11:19:59.794Z,23.82
2019-03-05T11:22:26.221Z,23.75
2019-03-05T11:24:52.641Z,23.72
2019-03-05T11:27:19.012Z,23.72
2019-03-05T11:29:45.376Z,23.74
2019-03-05T11:32:13.705Z,23.72
2019-03-05T11:34:40.116Z,23.79
2019-03-05T11:37:06.500Z,23.77
2019-03-05T11:39:32.878Z,23.74
2019-03-05T11:41:59.212Z,23.82
2019-03-05T11:44:25.548Z,23.75
2019-03-05T11:46:51.999Z,23.74
2019-03-05T11:49:18.321Z,23.79
2019-03-05T11:51:44.679Z,23.74
2019-03-05T11:54:11.003Z,23.75
2019-03-05T11:56:37.368Z,23.79
2019-03-05T11:59:03.698Z,23.77
2019-03-05T12:01:30.160Z,23.80
2019-03-05T12:03:56.504Z,23.81
2019-03-05T12:06:22.841Z,23.79
2019-03-05T12:08:49.215Z,23.81
2019-03-05T12:11:15.525Z,23.75
2019-03-05T12:13:41.873Z,23.81
2019-03-05T12:16:08.346Z,23.83
2019-03-05T12:18:34.764Z,23.84
2019-03-05T12:21:01.154Z,23.76
2019-03-05T12:23:27.495Z,23.75
2019-03-05T12:25:53.874Z,23.79
2019-03-05T12:28:20.206Z,23.68
2019-03-05T12:30:46.677Z,23.72
2019-03-05T12:33:13.038Z,23.71
2019-03-05T12:35:39.362Z,23.84
2019-03-05T12:38:05.856Z,23.83
2019-03-05T12:40:32.279Z,23.85
2019-03-05T12:42:58.640Z,23.86
2019-03-05T12:45:25.123Z,23.84
2019-03-05T12:47:51.518Z,23.85
2019-03-05T12:50:17.838Z,23.88
2019-03-05T12:52:44.423Z,23.98
2019-03-05T12:55:10.699Z,23.87
2019-03-05T12:57:38.239Z,23.86
2019-03-05T13:00:04.595Z,23.89
2019-03-05T13:02:30.923Z,23.95
2019-03-05T13:04:57.257Z,23.95
2019-03-05T13:07:23.673Z,23.92
2019-03-05T13:09:52.639Z,23.98
2019-03-05T13:12:16.393Z,23.95
2019-03-05T13:14:43.815Z,23.99
2019-03-05T13:17:09.087Z,24.02
2019-03-05T13:19:35.438Z,23.92
2019-03-05T13:22:01.766Z,24.02
2019-03-05T13:24:28.127Z,24.05
2019-03-05T13:26:54.459Z,24.00
2019-03-05T13:29:20.810Z,24.02
2019-03-05T13:31:47.171Z,24.05
2019-03-05T13:34:14.039Z,24.04
2019-03-05T13:36:39.907Z,24.04
2019-03-05T13:39:06.239Z,24.04
2019-03-05T13:41:32.611Z,23.97
2019-03-05T13:43:59.000Z,24.09
2019-03-05T13:46:28.649Z,23.97
2019-03-05T13:48:58.467Z,24.06
2019-03-05T13:51:23.067Z,23.99
2019-03-05T13:53:44.811Z,24.08
2019-03-05T13:56:12.102Z,23.94
2019-03-05T13:58:37.480Z,24.11
2019-03-05T14:01:03.865Z,24.12
2019-03-05T14:03:30.203Z,24.12
2019-03-05T14:05:56.543Z,24.16
2019-03-05T14:08:22.984Z,24.14
2019-03-05T14:10:49.292Z,24.09
2019-03-05T14:13:15.637Z,24.17
2019-03-05T14:15:42.012Z,24.16
2019-03-05T14:18:08.442Z,24.14
2019-03-05T14:20:35.318Z,24.23
2019-03-05T14:23:03.893Z,24.14
2019-03-05T14:25:30.265Z,24.18
2019-03-05T14:27:56.644Z,24.24
2019-03-05T14:30:22.990Z,24.12
2019-03-05T14:32:49.361Z,24.23
2019-03-05T14:35:15.784Z,24.19
2019-03-05T14:37:42.153Z,24.18
2019-03-05T14:40:23.734Z,24.21
2019-03-05T14:42:34.790Z,24.25
2019-03-05T14:45:01.249Z,24.20
2019-03-05T14:47:27.567Z,24.21
2019-03-05T14:49:53.878Z,24.10
2019-03-05T14:52:20.217Z,24.16
2019-03-05T14:54:46.582Z,24.23
2019-03-05T14:57:12.958Z,24.23
2019-03-05T14:59:39.355Z,24.27
2019-03-05T15:02:05.717Z,24.21
2019-03-05T15:04:32.065Z,24.17
2019-03-05T15:06:58.383Z,24.23
2019-03-05T15:09:24.746Z,24.17
2019-03-05T15:11:51.242Z,24.15
2019-03-05T15:14:17.454Z,24.17
2019-03-05T15:16:43.909Z,24.20
2019-03-05T15:19:20.978Z,24.09
2019-03-05T15:21:36.544Z,24.12
2019-03-05T15:24:02.885Z,24.12
2019-03-05T15:26:29.259Z,24.13
2019-03-05T15:28:56.702Z,24.05
2019-03-05T15:31:22.074Z,24.09
2019-03-05T15:33:48.446Z,24.11
2019-03-05T15:36:23.695Z,24.06
2019-03-05T15:38:41.107Z,24.03
2019-03-05T15:41:09.831Z,24.02
2019-03-05T15:43:36.193Z,24.04
2019-03-05T15:46:02.578Z,24.02
2019-03-05T15:48:28.937Z,24.06
2019-03-05T15:50:55.239Z,23.99
2019-03-05T15:53:21.581Z,23.94
2019-03-05T15:55:47.935Z,23.89
2019-03-05T15:58:14.279Z,23.94
2019-03-05T16:00:40.646Z,23.94
2019-03-05T16:03:07.023Z,23.87
2019-03-05T16:05:33.400Z,23.86
2019-03-05T16:08:01.021Z,23.92
2019-03-05T16:10:26.066Z,23.87
2019-03-05T16:12:52.564Z,23.87
2019-03-05T16:15:19.001Z,23.82
2019-03-05T16:17:45.393Z,23.81
2019-03-05T16:20:11.785Z,23.83
2019-03-05T16:22:38.136Z,23.80
2019-03-05T16:25:04.486Z,23.79
2019-03-05T16:27:31.452Z,23.79
2019-03-05T16:29:57.271Z,23.82
2019-03-05T16:32:26.841Z,23.77
2019-03-05T16:34:49.935Z,23.68
2019-03-05T16:37:16.258Z,23.65
2019-03-05T16:39:42.637Z,23.60
2019-03-05T16:42:09.027Z,23.60
2019-03-05T16:44:36.070Z,23.57
2019-03-05T16:47:01.759Z,23.52
2019-03-05T16:49:28.133Z,23.52
2019-03-05T16:51:54.453Z,23.46
2019-03-05T16:54:20.792Z,23.50
2019-03-05T16:56:47.130Z,23.47
2019-03-05T16:59:13.465Z,23.40
2019-03-05T17:01:39.856Z,23.40
2019-03-05T17:04:06.170Z,23.37
2019-03-05T17:06:32.495Z,23.28
2019-03-05T17:08:58.836Z,23.29
2019-03-05T17:11:25.157Z,23.28
2019-03-05T17:13:51.489Z,23.26
2019-03-05T17:16:17.879Z,23.22
2019-03-05T17:18:44.206Z,23.22
2019-03-05T17:21:10.532Z,23.18
2019-03-05T17:23:36.909Z,23.18
2019-03-05T17:26:03.275Z,23.17
2019-03-05T17:28:29.644Z,23.11
2019-03-05T17:30:55.998Z,23.11
2019-03-05T17:33:22.337Z,23.08
2019-03-05T17:35:48.668Z,23.03
2019-03-05T17:38:14.997Z,23.05
2019-03-05T17:40:41.424Z,23.06
2019-03-05T17:43:07.730Z,23.06
2019-03-05T17:45:34.062Z,23.02
2019-03-05T17:48:00.389Z,22.95
2019-03-05T17:50:26.756Z,22.96
2019-03-05T17:52:53.052Z,22.95
2019-03-05T17:55:24.564Z,22.91
2019-03-05T17:57:45.759Z,22.95
2019-03-05T18:00:12.086Z,22.86
2019-03-05T18:02:38.416Z,22.79
2019-03-05T18:05:04.728Z,22.83
2019-03-05T18:07:31.061Z,22.84
2019-03-05T18:09:57.394Z,22.91
2019-03-05T18:12:23.766Z,22.92
2019-03-05T18:14:50.137Z,22.90
2019-03-05T18:17:16.449Z,22.92
2019-03-05T18:19:42.776Z,22.92
2019-03-05T18:22:09.160Z,22.94
2019-03-05T18:24:35.515Z,22.95
2019-03-05T18:27:01.843Z,22.94
2019-03-05T18:29:28.201Z,22.95
2019-03-05T18:31:54.572Z,22.94
2019-03-05T18:34:20.909Z,22.95
2019-03-05T18:36:47.279Z,22.94
2019-03-05T18:39:13.616Z,22.93
2019-03-05T18:41:41.330Z,22.91
2019-03-05T18:44:06.302Z,22.93
2019-03-05T18:46:32.691Z,22.90
2019-03-05T18:48:59.021Z,22.88
2019-03-05T18:51:25.351Z,22.90
2019-03-05T18:53:51.739Z,22.88
2019-03-05T18:56:18.032Z,22.86
2019-03-05T18:58:44.362Z,22.88
2019-03-05T19:01:10.787Z,22.88
2019-03-05T19:03:37.071Z,22.86
2019-03-05T19:06:03.407Z,22.85
2019-03-05T19:08:29.771Z,22.85
2019-03-05T19:10:56.121Z,22.86
2019-03-05T19:13:22.492Z,22.85
2019-03-05T19:15:48.845Z,22.85
2019-03-05T19:18:15.295Z,22.87
2019-03-05T19:20:41.626Z,22.90
2019-03-05T19:23:08.059Z,22.90
2019-03-05T19:25:34.347Z,22.87
2019-03-05T19:28:00.729Z,22.87
2019-03-05T19:30:27.139Z,22.85
2019-03-05T19:32:53.593Z,22.87
2019-03-05T19:35:19.917Z,22.86
2019-03-05T19:37:46.214Z,22.87
2019-03-05T19:40:12.646Z,22.87
2019-03-05T19:42:38.916Z,22.86
2019-03-05T19:45:05.340Z,22.84
2019-03-05T19:47:31.670Z,22.83
2019-03-05T19:49:58.028Z,22.82
2019-03-05T19:52:24.362Z,22.85
2019-03-05T19:54:50.699Z,22.84
2019-03-05T19:57:17.036Z,22.83
2019-03-05T19:59:43.362Z,22.83
2019-03-05T20:02:09.720Z,22.81
2019-03-05T20:04:36.088Z,22.83
2019-03-05T20:07:02.441Z,22.84
2019-03-05T20:09:28.769Z,22.86
2019-03-05T20:11:55.119Z,22.84
2019-03-05T20:14:21.557Z,22.84
2019-03-05T20:16:49.903Z,22.83
2019-03-05T20:19:14.258Z,22.82
2019-03-05T20:21:40.591Z,22.79
2019-03-05T20:24:06.976Z,22.81
2019-03-05T20:26:33.304Z,22.81
2019-03-05T20:28:59.688Z,22.80
2019-03-05T20:31:26.057Z,22.81
2019-03-05T20:33:52.365Z,22.83
2019-03-05T20:36:18.693Z,22.82
2019-03-05T20:38:45.059Z,22.81
2019-03-05T20:41:11.420Z,22.80
2019-03-05T20:43:37.749Z,22.81
2019-03-05T20:46:04.089Z,22.82
2019-03-05T20:48:30.414Z,22.81
2019-03-05T20:50:56.763Z,22.80
2019-03-05T20:53:23.135Z,22.79
2019-03-05T20:55:49.641Z,22.82
2019-03-05T20:58:16.082Z,22.81
2019-03-05T21:00:42.412Z,22.82
2019-03-05T21:03:08.742Z,22.81
2019-03-05T21:05:35.070Z,22.80
2019-03-05T21:08:01.392Z,22.70
2019-03-05T21:10:27.725Z,22.76
2019-03-05T21:12:54.125Z,22.76
2019-03-05T21:15:20.461Z,22.75
2019-03-05T21:17:46.884Z,22.70
2019-03-05T21:20:13.221Z,22.66
2019-03-05T21:22:39.552Z,22.60
2019-03-05T21:25:05.948Z,22.61
2019-03-05T21:27:32.320Z,22.55
2019-03-05T21:29:58.660Z,22.51
2019-03-05T21:32:24.996Z,22.44
2019-03-05T21:34:51.327Z,22.43
2019-03-05T21:37:17.719Z,22.39
2019-03-05T21:39:44.057Z,22.35
2019-03-05T21:42:10.535Z,22.32
2019-03-05T21:44:36.922Z,22.33
2019-03-05T21:47:03.260Z,22.26
2019-03-05T21:49:29.631Z,22.25
2019-03-05T21:51:55.921Z,22.20
2019-03-05T21:54:22.257Z,22.19
2019-03-05T21:56:48.635Z,22.16
2019-03-05T21:59:14.963Z,22.17
2019-03-05T22:01:41.294Z,22.13
2019-03-05T22:04:07.632Z,22.08
2019-03-05T22:06:33.955Z,22.04
2019-03-05T22:09:00.326Z,22.02
2019-03-05T22:11:26.708Z,22.01
2019-03-05T22:13:53.144Z,22.02
2019-03-05T22:16:19.472Z,22.01
2019-03-05T22:18:45.807Z,21.99
2019-03-05T22:21:12.138Z,21.96
2019-03-05T22:23:38.501Z,21.92
2019-03-05T22:26:04.850Z,21.90
2019-03-05T22:28:31.187Z,21.90
2019-03-05T22:30:57.511Z,21.90
2019-03-05T22:33:23.855Z,21.89
2019-03-05T22:35:50.221Z,21.88
2019-03-05T22:38:16.525Z,21.85
2019-03-05T22:40:42.856Z,21.82
2019-03-05T22:43:09.210Z,21.80
2019-03-05T22:45:35.539Z,21.79
2019-03-05T22:48:01.876Z,21.78
2019-03-05T22:50:28.205Z,21.78
2019-03-05T22:52:54.581Z,21.77
2019-03-05T22:55:20.928Z,21.75
2019-03-05T22:57:47.383Z,21.73
2019-03-05T23:00:13.769Z,21.73
2019-03-05T23:02:40.075Z,21.70
2019-03-05T23:05:06.410Z,21.70
2019-03-05T23:07:32.834Z,21.69
2019-03-05T23:09:59.158Z,21.69
2019-03-05T23:12:25.499Z,21.67
2019-03-05T23:14:51.862Z,21.65
2019-03-05T23:17:18.192Z,21.63
2019-03-05T23:19:44.575Z,21.61
2019-03-05T23:22:10.970Z,21.63
2019-03-05T23:24:37.260Z,21.61
2019-03-05T23:27:03.589Z,21.62
2019-03-05T23:29:30.009Z,21.59
2019-03-05T23:31:56.361Z,21.58
2019-03-05T23:34:22.685Z,21.55
2019-03-05T23:36:49.024Z,21.52
2019-03-05T23:39:15.390Z,21.51
2019-03-05T23:41:41.753Z,21.52
2019-03-05T23:44:08.049Z,21.53
2019-03-05T23:46:34.421Z,21.51
2019-03-05T23:49:00.694Z,21.52
2019-03-05T23:51:27.069Z,21.48
2019-03-05T23:53:53.416Z,21.46
2019-03-05T23:56:19.749Z,21.44
2019-03-05T23:58:46.079Z,21.45
